Time;durP1;ratioP1;P1;durP2;ratioP2;P2;SDS_P1;SDS_P2;PMS_P1;PMS_P2;Temp;Humidity;BMP_temperature;BMP_pressure;BME280_temperature;BME280_humidity;BME280_pressure;Samples;Min_cycle;Max_cycle;Signal;HPM_P1;HPM_P2
2022/02/23 00:02:07;;;;;;;45.47;14.43;;;1.50;99.90;;;;;;4399443;28;659097;-75
2022/02/23 00:04:54;;;;;;;47.37;13.93;;;1.50;99.90;;;;;;4381642;28;658847;-75
2022/02/23 00:07:42;;;;;;;48.93;14.50;;;1.50;99.90;;;;;;4392306;28;659685;-75
2022/02/23 00:10:31;;;;;;;47.90;13.87;;;1.60;99.90;;;;;;4385967;28;659562;-75
2022/02/23 00:13:18;;;;;;;53.93;14.57;;;1.60;99.90;;;;;;4387706;28;658661;-73
2022/02/23 00:16:06;;;;;;;56.73;15.20;;;1.60;99.90;;;;;;4395034;28;659749;-75
2022/02/23 00:18:54;;;;;;;47.97;14.30;;;1.60;99.90;;;;;;4380814;28;659479;-74
2022/02/23 00:21:41;;;;;;;51.23;14.40;;;1.60;99.90;;;;;;4406275;28;659645;-75
2022/02/23 00:24:29;;;;;;;44.00;14.10;;;1.70;99.90;;;;;;4386059;28;661181;-75
2022/02/23 00:27:18;;;;;;;43.73;13.63;;;1.60;99.90;;;;;;4405511;28;659993;-75
2022/02/23 00:30:07;;;;;;;44.17;13.23;;;1.60;99.90;;;;;;4381839;28;659253;-75
2022/02/23 00:32:55;;;;;;;55.27;15.63;;;1.60;99.90;;;;;;4390434;28;658599;-75
2022/02/23 00:35:42;;;;;;;52.60;15.33;;;1.60;99.90;;;;;;4407776;28;659145;-75
2022/02/23 00:38:30;;;;;;;53.93;15.83;;;1.60;99.90;;;;;;4386900;28;660857;-75
2022/02/23 00:41:17;;;;;;;48.90;15.27;;;1.60;99.90;;;;;;4406383;28;658746;-75
2022/02/23 00:44:07;;;;;;;45.97;15.90;;;1.60;99.90;;;;;;4385402;28;658970;-75
2022/02/23 00:46:54;;;;;;;42.63;13.80;;;1.60;99.90;;;;;;4386246;28;658839;-75
2022/02/23 00:49:42;;;;;;;41.47;14.87;;;1.60;99.90;;;;;;4407359;28;658465;-75
2022/02/23 00:52:29;;;;;;;62.70;19.55;;;1.60;99.90;;;;;;4389685;28;660498;-75
2022/02/23 00:55:17;;;;;;;63.60;20.37;;;1.60;99.90;;;;;;4405295;28;659184;-74
2022/02/23 00:58:04;;;;;;;61.33;18.27;;;1.60;99.90;;;;;;4388157;28;659975;-75
2022/02/23 01:00:53;;;;;;;106.53;33.43;;;1.60;99.90;;;;;;4401646;28;659364;-74
2022/02/23 01:03:41;;;;;;;53.20;18.07;;;1.60;99.90;;;;;;4385466;28;660916;-75
2022/02/23 01:06:28;;;;;;;51.35;14.50;;;1.60;99.90;;;;;;4384707;28;658882;-72
2022/02/23 01:09:16;;;;;;;44.13;15.10;;;1.60;99.90;;;;;;4404654;28;660413;-75
2022/02/23 01:12:04;;;;;;;67.68;21.45;;;1.50;99.90;;;;;;4389554;28;658946;-72
2022/02/23 01:14:51;;;;;;;47.75;15.00;;;1.50;99.90;;;;;;4404822;28;660377;-75
2022/02/23 01:17:41;;;;;;;46.40;14.60;;;1.60;99.90;;;;;;4389310;28;658984;-75
2022/02/23 01:20:28;;;;;;;42.57;13.87;;;1.50;99.90;;;;;;4391404;28;659833;-74
2022/02/23 01:23:16;;;;;;;40.43;12.63;;;1.60;99.90;;;;;;4405410;28;658563;-74
2022/02/23 01:26:04;;;;;;;35.80;11.95;;;1.60;99.90;;;;;;4387099;28;658576;-73
2022/02/23 01:28:51;;;;;;;33.60;10.70;;;1.70;99.90;;;;;;4409384;28;659608;-74
2022/02/23 01:31:39;;;;;;;47.47;12.47;;;1.70;99.90;;;;;;4389111;28;658990;-75
2022/02/23 01:34:28;;;;;;;35.03;9.63;;;1.70;99.90;;;;;;4412273;28;659683;-75
2022/02/23 01:37:15;;;;;;;36.17;10.40;;;1.70;99.90;;;;;;4385767;28;659276;-75
2022/02/23 01:40:04;;;;;;;39.03;11.30;;;1.70;99.90;;;;;;4406635;28;658819;-72
2022/02/23 01:42:52;;;;;;;34.17;10.00;;;1.70;99.90;;;;;;4403175;28;659376;-75
2022/02/23 01:45:39;;;;;;;30.10;9.57;;;1.80;99.90;;;;;;4390680;28;658623;-75
2022/02/23 01:48:27;;;;;;;28.03;9.43;;;1.80;99.90;;;;;;4409526;28;658208;-75
2022/02/23 01:51:16;;;;;;;31.23;10.00;;;1.80;99.90;;;;;;4388696;28;657881;-74
2022/02/23 01:54:03;;;;;;;32.57;8.93;;;1.90;99.90;;;;;;4387558;28;658619;-73
2022/02/23 01:56:51;;;;;;;31.00;9.30;;;2.00;99.90;;;;;;4410088;28;658770;-75
2022/02/23 01:59:38;;;;;;;28.83;8.43;;;2.00;99.90;;;;;;4391081;28;657361;-73
2022/02/23 02:02:26;;;;;;;27.77;8.43;;;2.00;99.90;;;;;;4407626;28;658409;-74
2022/02/23 02:05:15;;;;;;;28.20;8.40;;;2.00;99.90;;;;;;4390514;28;657452;-73
2022/02/23 02:08:05;;;;;;;33.13;9.13;;;2.10;99.90;;;;;;4402116;28;657431;-74
2022/02/23 02:10:53;;;;;;;29.37;8.30;;;2.00;99.90;;;;;;4407559;28;657169;-75
2022/02/23 02:13:40;;;;;;;30.03;8.10;;;2.00;99.90;;;;;;4387050;28;659319;-75
2022/02/23 02:16:28;;;;;;;25.50;7.93;;;2.00;99.90;;;;;;4412616;28;658091;-75
2022/02/23 02:19:15;;;;;;;25.07;7.93;;;1.90;99.90;;;;;;4384881;28;659303;-75
2022/02/23 02:22:05;;;;;;;27.07;8.20;;;1.80;99.90;;;;;;4407086;28;657710;-75
2022/02/23 02:24:54;;;;;;;30.95;8.15;;;1.80;99.90;;;;;;4379642;28;657899;-73
2022/02/23 02:27:41;;;;;;;21.00;7.27;;;1.80;99.90;;;;;;4412566;28;658651;-76
2022/02/23 02:30:29;;;;;;;27.00;8.37;;;1.70;99.90;;;;;;4389678;28;657568;-74
2022/02/23 02:33:16;;;;;;;23.43;7.40;;;1.70;99.90;;;;;;4413712;28;658953;-75
2022/02/23 02:36:04;;;;;;;26.70;8.23;;;1.70;99.90;;;;;;4388212;28;658391;-74
2022/02/23 02:38:53;;;;;;;24.77;7.77;;;1.70;99.90;;;;;;4405159;28;658581;-75
2022/02/23 02:41:40;;;;;;;23.80;7.50;;;1.70;99.90;;;;;;4385638;28;658427;-75
2022/02/23 02:44:29;;;;;;;23.80;7.20;;;1.70;99.90;;;;;;4406336;28;657525;-73
2022/02/23 02:47:16;;;;;;;24.53;6.73;;;1.70;99.90;;;;;;4410824;28;658673;-74
2022/02/23 02:50:05;;;;;;;20.70;5.67;;;1.70;99.90;;;;;;4385148;28;657244;-74
2022/02/23 02:52:52;;;;;;;20.13;5.87;;;1.80;99.90;;;;;;4399646;28;657687;-75
2022/02/23 02:55:41;;;;;;;16.70;5.33;;;1.80;99.90;;;;;;4389270;28;658952;-75
2022/02/23 02:58:30;;;;;;;18.03;5.57;;;1.90;99.90;;;;;;4389401;28;657920;-75
2022/02/23 03:01:17;;;;;;;17.40;5.20;;;1.90;99.90;;;;;;4402607;28;657653;-75
2022/02/23 03:04:06;;;;;;;22.90;5.20;;;2.00;99.90;;;;;;4383838;28;657859;-75
2022/02/23 03:06:53;;;;;;;19.13;5.72;;;2.10;99.90;;;;;;4389256;28;657520;-73
2022/02/23 03:09:41;;;;;;;18.43;5.57;;;2.20;99.90;;;;;;4404013;28;658496;-74
2022/02/23 03:12:30;;;;;;;20.53;6.10;;;2.30;99.90;;;;;;4384377;28;657539;-72
2022/02/23 03:15:17;;;;;;;18.57;5.80;;;2.30;99.90;;;;;;4405811;28;657937;-75
2022/02/23 03:18:05;;;;;;;15.63;5.53;;;2.30;99.90;;;;;;4383093;28;657368;-75
2022/02/23 03:20:52;;;;;;;17.20;4.93;;;2.30;99.90;;;;;;4404421;28;657832;-75
2022/02/23 03:23:40;;;;;;;23.93;5.53;;;2.40;99.90;;;;;;4388263;28;659024;-75
2022/02/23 03:26:28;;;;;;;21.43;5.50;;;2.40;99.90;;;;;;4402898;28;657760;-72
2022/02/23 03:29:17;;;;;;;19.30;4.83;;;2.40;99.90;;;;;;4406322;28;659324;-75
2022/02/23 03:32:06;;;;;;;14.90;4.40;;;2.50;99.90;;;;;;4386491;28;657517;-75
2022/02/23 03:34:54;;;;;;;14.07;3.90;;;2.50;99.90;;;;;;4384597;28;657776;-75
2022/02/23 03:37:41;;;;;;;18.42;4.97;;;2.50;99.90;;;;;;4405552;28;657948;-74
2022/02/23 03:40:29;;;;;;;15.00;3.57;;;2.60;99.90;;;;;;4388744;28;658615;-75
2022/02/23 03:43:17;;;;;;;18.80;4.17;;;2.70;99.90;;;;;;4405058;28;657498;-74
2022/02/23 03:46:06;;;;;;;11.77;2.37;;;2.70;99.90;;;;;;4387604;28;657845;-75
2022/02/23 03:48:54;;;;;;;8.73;3.30;;;2.70;99.90;;;;;;4381123;28;658021;-74
2022/02/23 03:51:41;;;;;;;15.30;3.67;;;2.70;99.90;;;;;;4412694;28;657653;-75
2022/02/23 03:54:29;;;;;;;14.23;3.67;;;2.60;99.90;;;;;;4387661;28;657696;-74
2022/02/23 03:57:16;;;;;;;7.23;3.17;;;2.60;99.90;;;;;;4408446;28;658727;-75
2022/02/23 04:00:04;;;;;;;14.13;3.43;;;2.60;99.90;;;;;;4382817;28;656788;-72
2022/02/23 04:02:53;;;;;;;17.50;4.57;;;2.50;99.90;;;;;;4408413;28;658245;-74
2022/02/23 04:05:41;;;;;;;8.67;3.20;;;2.50;99.90;;;;;;4394443;28;658212;-74
2022/02/23 04:08:28;;;;;;;14.05;3.38;;;2.40;99.90;;;;;;4398574;28;656466;-73
2022/02/23 04:11:16;;;;;;;15.43;4.50;;;2.40;99.90;;;;;;4408722;28;658982;-74
2022/02/23 04:14:04;;;;;;;16.98;4.70;;;2.30;99.90;;;;;;4395212;28;657591;-73
2022/02/23 04:16:51;;;;;;;11.40;3.77;;;2.30;99.90;;;;;;4407435;28;658903;-74
2022/02/23 04:19:40;;;;;;;12.07;3.87;;;2.10;99.90;;;;;;4394669;28;657700;-73
2022/02/23 04:22:28;;;;;;;8.43;2.97;;;2.10;99.90;;;;;;4407760;28;657837;-74
2022/02/23 04:25:16;;;;;;;13.33;4.30;;;2.10;99.90;;;;;;4391926;28;657770;-75
2022/02/23 04:28:04;;;;;;;15.90;4.63;;;2.10;99.90;;;;;;4392299;28;657734;-75
2022/02/23 04:30:52;;;;;;;19.67;5.23;;;2.10;99.90;;;;;;4409526;28;658952;-75
2022/02/23 04:33:39;;;;;;;17.30;4.30;;;2.10;99.90;;;;;;4389402;28;658258;-74
2022/02/23 04:36:28;;;;;;;18.30;4.90;;;2.10;99.90;;;;;;4407858;28;658040;-75
2022/02/23 04:39:16;;;;;;;20.80;5.70;;;2.10;99.90;;;;;;4389087;28;658616;-74
2022/02/23 04:42:08;;;;;;;17.67;5.77;;;2.10;99.90;;;;;;4392746;28;657934;-74
2022/02/23 04:45:00;;;;;;;15.07;5.53;;;2.10;99.90;;;;;;4385893;28;658803;-75
2022/02/23 04:47:48;;;;;;;16.03;5.20;;;2.10;99.90;;;;;;4390523;28;657747;-75
2022/02/23 04:50:35;;;;;;;15.37;5.87;;;2.10;99.90;;;;;;4382646;28;658995;-75
2022/02/23 04:53:24;;;;;;;16.23;6.07;;;2.10;99.90;;;;;;4412923;28;657366;-75
2022/02/23 04:56:12;;;;;;;17.73;6.33;;;2.00;99.90;;;;;;4388935;28;658315;-75
2022/02/23 04:58:59;;;;;;;15.07;6.60;;;1.90;99.90;;;;;;4388257;28;657732;-75
2022/02/23 05:01:47;;;;;;;23.33;6.23;;;2.00;99.90;;;;;;4408270;28;658390;-75
2022/02/23 05:04:34;;;;;;;22.90;6.73;;;1.90;99.90;;;;;;4388213;28;658115;-74
2022/02/23 05:07:24;;;;;;;21.97;6.90;;;1.90;99.90;;;;;;4412509;28;658254;-75
2022/02/23 05:10:12;;;;;;;18.87;6.80;;;2.00;99.90;;;;;;4388254;28;658309;-75
2022/02/23 05:13:00;;;;;;;16.27;6.00;;;1.90;99.90;;;;;;4385172;28;658476;-75
2022/02/23 05:15:48;;;;;;;15.53;5.47;;;2.00;99.90;;;;;;4406728;28;657042;-75
2022/02/23 05:18:36;;;;;;;19.53;7.83;;;2.00;99.90;;;;;;4385806;28;658197;-75
2022/02/23 05:21:23;;;;;;;19.08;6.65;;;2.10;99.90;;;;;;4393684;28;657848;-73
2022/02/23 05:24:11;;;;;;;13.77;6.17;;;2.10;99.90;;;;;;4407772;28;658444;-74
2022/02/23 05:27:00;;;;;;;16.85;6.88;;;2.20;99.90;;;;;;4382941;28;658044;-73
2022/02/23 05:29:48;;;;;;;20.60;8.13;;;2.20;99.90;;;;;;4410784;28;657937;-75
2022/02/23 05:32:35;;;;;;;15.30;6.80;;;2.20;99.90;;;;;;4380577;28;659022;-75
2022/02/23 05:35:23;;;;;;;18.97;7.83;;;2.20;99.90;;;;;;4408229;28;658238;-75
2022/02/23 05:38:10;;;;;;;24.47;8.43;;;2.30;99.90;;;;;;4389394;28;658695;-75
2022/02/23 05:41:01;;;;;;;26.83;7.33;;;2.30;99.90;;;;;;4401441;28;657166;-73
2022/02/23 05:43:51;;;;;;;15.93;7.07;;;2.40;99.90;;;;;;4386455;28;657596;-75
2022/02/23 05:46:38;;;;;;;21.30;8.60;;;2.40;99.90;;;;;;4396558;28;657654;-73
2022/02/23 05:49:26;;;;;;;25.63;10.33;;;2.40;99.90;;;;;;4403535;28;658103;-76
2022/02/23 05:52:14;;;;;;;17.80;8.97;;;2.50;99.90;;;;;;4389395;28;659008;-75
2022/02/23 05:55:03;;;;;;;24.90;10.30;;;2.50;99.90;;;;;;4403992;28;658602;-75
2022/02/23 05:57:51;;;;;;;13.33;5.23;;;2.60;99.90;;;;;;4380733;28;659849;-75
2022/02/23 06:00:40;;;;;;;21.10;9.57;;;2.60;99.90;;;;;;4387772;28;658225;-73
2022/02/23 06:03:27;;;;;;;16.70;7.27;;;2.70;99.90;;;;;;4404265;28;657468;-75
2022/02/23 06:06:15;;;;;;;19.57;7.30;;;2.70;99.90;;;;;;4384457;28;658487;-75
2022/02/23 06:09:03;;;;;;;18.50;7.18;;;2.70;99.90;;;;;;4403566;28;657918;-75
2022/02/23 06:11:51;;;;;;;23.77;6.83;;;2.70;99.90;;;;;;4379970;28;659136;-75
2022/02/23 06:14:38;;;;;;;22.23;5.97;;;2.80;99.90;;;;;;4382214;28;657374;-78
2022/02/23 06:17:28;;;;;;;22.50;9.67;;;2.80;99.90;;;;;;4402251;28;659046;-76
2022/02/23 06:20:15;;;;;;;24.03;8.20;;;2.80;99.90;;;;;;4377363;28;658573;-76
2022/02/23 06:23:34;;;;;;;17.10;7.20;;;2.80;99.90;;;;;;4406209;28;657978;-77
2022/02/23 06:26:21;;;;;;;26.60;9.23;;;2.80;99.90;;;;;;4376119;28;658390;-77
2022/02/23 06:29:09;;;;;;;25.30;8.20;;;2.80;99.90;;;;;;4379801;28;657972;-77
2022/02/23 06:32:03;;;;;;;19.83;8.53;;;2.80;99.90;;;;;;4407053;28;658992;-75
2022/02/23 06:34:52;;;;;;;28.43;9.43;;;2.80;99.90;;;;;;4384933;28;657924;-77
2022/02/23 06:37:40;;;;;;;22.80;8.60;;;2.90;99.90;;;;;;4382431;28;657821;-76
2022/02/23 06:40:27;;;;;;;18.83;8.70;;;2.90;99.90;;;;;;4405929;28;657671;-76
2022/02/23 06:43:16;;;;;;;13.17;6.20;;;3.00;99.90;;;;;;4384446;28;657368;-77
2022/02/23 06:46:04;;;;;;;20.50;8.07;;;3.00;99.90;;;;;;4390937;28;657963;-77
2022/02/23 06:48:51;;;;;;;22.10;7.70;;;2.90;99.90;;;;;;4404937;28;658827;-76
2022/02/23 06:51:40;;;;;;;23.17;8.13;;;3.00;99.90;;;;;;4381484;28;657763;-77
2022/02/23 06:54:28;;;;;;;23.40;8.13;;;3.00;99.90;;;;;;4401073;28;657437;-78
2022/02/23 06:57:17;;;;;;;22.43;7.30;;;3.00;99.90;;;;;;4405386;28;659014;-79
2022/02/23 07:00:06;;;;;;;18.03;6.37;;;3.10;99.90;;;;;;4376689;28;658246;-76
2022/02/23 07:02:54;;;;;;;22.90;7.50;;;3.20;99.90;;;;;;4387168;28;657743;-77
2022/02/23 07:05:41;;;;;;;17.03;5.90;;;3.20;99.90;;;;;;4406430;28;657816;-77
2022/02/23 07:08:30;;;;;;;23.93;7.00;;;3.30;99.90;;;;;;4386534;28;657389;-77
2022/02/23 07:11:19;;;;;;;20.03;8.03;;;3.30;99.90;;;;;;4396390;28;658027;-77
2022/02/23 07:14:06;;;;;;;14.73;6.13;;;3.30;99.90;;;;;;4398041;28;657231;-76
2022/02/23 07:16:54;;;;;;;17.73;6.03;;;3.40;99.90;;;;;;4378846;28;658114;-77
2022/02/23 07:19:41;;;;;;;21.45;6.50;;;3.50;99.90;;;;;;4408850;28;658410;-76
2022/02/23 07:22:29;;;;;;;25.03;7.33;;;3.50;99.90;;;;;;4384020;28;657480;-76
2022/02/23 07:25:18;;;;;;;19.37;6.87;;;3.50;99.90;;;;;;4405705;28;658849;-77
2022/02/23 07:28:06;;;;;;;24.35;6.93;;;3.60;99.90;;;;;;4380169;28;658275;-76
2022/02/23 07:30:54;;;;;;;17.80;5.50;;;3.60;99.90;;;;;;4385839;28;657913;-77
2022/02/23 07:33:41;;;;;;;15.00;4.70;;;3.60;99.90;;;;;;4399607;28;659658;-76
2022/02/23 07:36:29;;;;;;;8.27;3.53;;;3.40;99.90;;;;;;4383849;28;658008;-77
2022/02/23 07:39:17;;;;;;;9.68;3.40;;;3.00;99.90;;;;;;4405025;28;657666;-76
2022/02/23 07:42:07;;;;;;;7.47;2.80;;;2.70;99.90;;;;;;4391038;28;657125;-76
2022/02/23 07:44:55;;;;;;;5.07;2.27;;;2.60;99.90;;;;;;4382587;28;656545;-76
2022/02/23 07:47:43;;;;;;;7.00;2.57;;;2.40;99.90;;;;;;4398063;28;656859;-76
2022/02/23 07:50:32;;;;;;;7.40;1.90;;;2.20;99.90;;;;;;4376445;28;657265;-75
2022/02/23 07:53:20;;;;;;;10.50;2.50;;;2.10;99.90;;;;;;4387256;28;657180;-74
2022/02/23 07:56:07;;;;;;;8.47;2.33;;;2.20;99.90;;;;;;4403637;28;657682;-76
2022/02/23 07:58:56;;;;;;;11.23;2.77;;;2.20;99.90;;;;;;4374435;28;657119;-75
2022/02/23 08:01:45;;;;;;;9.33;2.80;;;2.30;99.90;;;;;;4385468;28;658021;-74
2022/02/23 08:04:33;;;;;;;16.92;3.38;;;2.40;99.90;;;;;;4399283;28;656372;-76
2022/02/23 08:07:21;;;;;;;13.43;3.20;;;2.60;99.90;;;;;;4381942;28;659370;-75
2022/02/23 08:10:10;;;;;;;24.90;4.47;;;2.90;99.90;;;;;;4387136;28;657492;-75
2022/02/23 08:12:58;;;;;;;16.70;3.90;;;3.20;99.90;;;;;;4399547;28;658872;-75
2022/02/23 08:21:58;;;;;;;12.17;3.20;;;3.60;99.90;;;;;;4378740;28;657341;-75
2022/02/23 08:24:47;;;;;;;29.60;4.07;;;3.80;99.90;;;;;;4380180;28;658081;-76
2022/02/23 08:27:36;;;;;;;12.63;3.10;;;4.00;99.90;;;;;;4382838;28;657788;-75
2022/02/23 08:30:24;;;;;;;23.50;3.27;;;4.30;99.90;;;;;;4383117;28;657328;-73
2022/02/23 08:33:13;;;;;;;18.20;3.40;;;4.50;99.90;;;;;;4404832;28;657679;-75
2022/02/23 08:36:00;;;;;;;16.13;2.77;;;4.70;99.90;;;;;;4379433;28;658222;-75
2022/02/23 08:38:48;;;;;;;18.40;3.03;;;4.70;99.90;;;;;;4399197;28;657940;-73
2022/02/23 08:41:36;;;;;;;15.50;3.03;;;4.60;99.90;;;;;;4402744;28;658572;-75
2022/02/23 08:44:24;;;;;;;9.03;2.07;;;4.60;99.90;;;;;;4377034;28;657740;-75
2022/02/23 08:47:12;;;;;;;16.50;2.40;;;4.70;99.90;;;;;;4406464;28;656785;-75
2022/02/23 08:50:01;;;;;;;23.27;3.60;;;4.70;99.90;;;;;;4382044;28;657525;-75
2022/02/23 08:52:49;;;;;;;11.93;3.10;;;4.70;99.90;;;;;;4386252;28;657675;-74
2022/02/23 08:55:36;;;;;;;16.90;2.57;;;4.80;99.90;;;;;;4409844;28;658815;-75
2022/02/23 08:58:24;;;;;;;13.13;2.20;;;4.80;99.90;;;;;;4387379;28;658736;-75
2022/02/23 09:01:11;;;;;;;20.33;2.93;;;4.70;99.90;;;;;;4409633;28;658623;-75
2022/02/23 09:04:01;;;;;;;21.60;3.07;;;4.70;99.90;;;;;;4387460;28;657208;-75
2022/02/23 09:06:50;;;;;;;15.53;3.00;;;4.80;99.90;;;;;;4385379;28;658336;-73
2022/02/23 09:09:38;;;;;;;14.00;2.50;;;4.90;99.90;;;;;;4403573;28;657229;-76
2022/02/23 09:12:25;;;;;;;14.83;2.77;;;4.90;99.90;;;;;;4382412;28;659211;-75
2022/02/23 09:15:14;;;;;;;6.87;2.27;;;4.90;99.90;;;;;;4404155;28;657445;-73
2022/02/23 09:18:01;;;;;;;14.73;3.53;;;4.70;99.90;;;;;;4410483;28;657171;-75
2022/02/23 09:20:49;;;;;;;13.63;3.63;;;4.40;99.90;;;;;;4386986;28;657339;-75
2022/02/23 09:23:38;;;;;;;13.75;3.35;;;4.10;99.90;;;;;;4407946;28;658029;-75
2022/02/23 09:26:26;;;;;;;16.53;3.50;;;4.10;99.90;;;;;;4383074;28;658943;-75
2022/02/23 09:29:14;;;;;;;23.50;3.77;;;4.00;99.90;;;;;;4390245;28;657488;-73
2022/02/23 09:32:01;;;;;;;18.70;3.90;;;4.00;99.90;;;;;;4410835;28;658505;-75
2022/02/23 09:34:49;;;;;;;21.90;5.13;;;4.00;99.90;;;;;;4387555;28;657395;-75
2022/02/23 09:37:37;;;;;;;14.37;3.63;;;3.90;99.90;;;;;;4401389;28;657727;-76
2022/02/23 09:40:26;;;;;;;21.83;4.15;;;3.90;99.90;;;;;;4383627;28;658072;-75
2022/02/23 09:43:14;;;;;;;16.70;3.75;;;3.90;99.90;;;;;;4383295;28;658071;-74
2022/02/23 09:46:01;;;;;;;17.10;4.33;;;3.90;99.90;;;;;;4404681;28;658015;-74
2022/02/23 09:48:49;;;;;;;17.53;4.00;;;3.70;99.90;;;;;;4384077;28;657399;-75
2022/02/23 09:51:36;;;;;;;14.07;4.07;;;3.50;99.90;;;;;;4400866;28;658410;-75
2022/02/23 09:54:26;;;;;;;18.57;4.57;;;3.40;99.90;;;;;;4385286;28;659064;-75
2022/02/23 09:57:15;;;;;;;13.37;3.80;;;3.50;99.90;;;;;;4388717;28;657691;-72
2022/02/23 10:00:05;;;;;;;17.80;4.13;;;3.70;99.90;;;;;;4400444;28;658006;-73
2022/02/23 10:02:54;;;;;;;12.93;3.70;;;3.70;99.90;;;;;;4382015;28;658024;-75
2022/02/23 10:05:43;;;;;;;15.67;4.00;;;3.80;99.90;;;;;;4378506;28;658064;-75
2022/02/23 10:08:33;;;;;;;19.27;3.78;;;3.70;99.90;;;;;;4387224;28;658826;-75
2022/02/23 10:11:21;;;;;;;19.00;3.30;;;3.60;99.90;;;;;;4375622;28;658128;-75
2022/02/23 10:14:11;;;;;;;20.05;4.35;;;3.60;99.90;;;;;;4385090;28;657799;-73
2022/02/23 10:16:59;;;;;;;20.27;3.35;;;3.60;99.90;;;;;;4384612;28;657954;-73
2022/02/23 10:19:49;;;;;;;17.43;3.43;;;3.70;99.90;;;;;;4406791;28;658294;-76
2022/02/23 10:22:36;;;;;;;15.33;3.50;;;3.80;99.90;;;;;;4380953;28;658056;-75
2022/02/23 10:25:25;;;;;;;16.13;3.20;;;3.90;99.90;;;;;;4384686;28;657676;-75
2022/02/23 10:28:14;;;;;;;14.40;3.27;;;4.00;99.90;;;;;;4400936;28;657607;-75
2022/02/23 10:31:04;;;;;;;18.57;3.40;;;4.10;99.90;;;;;;4383105;28;657672;-75
2022/02/23 10:33:51;;;;;;;14.73;3.43;;;4.20;99.90;;;;;;4380640;28;658288;-74
2022/02/23 10:36:39;;;;;;;15.33;3.67;;;4.30;99.90;;;;;;4378753;28;657195;-75
2022/02/23 10:39:36;;;;;;;18.23;3.90;;;4.30;99.90;;;;;;4402864;28;658554;-75
2022/02/23 10:42:26;;;;;;;16.27;3.30;;;4.40;99.90;;;;;;4368602;28;657197;-73
2022/02/23 10:45:17;;;;;;;15.10;3.43;;;4.50;99.90;;;;;;4388798;28;658277;-73
2022/02/23 10:48:07;;;;;;;16.57;3.20;;;4.50;99.90;;;;;;4381781;28;657390;-75
2022/02/23 10:50:55;;;;;;;11.13;3.60;;;4.70;99.90;;;;;;4382346;28;657439;-75
2022/02/23 10:53:43;;;;;;;17.40;2.90;;;4.90;99.90;;;;;;4403205;28;658092;-75
2022/02/23 10:56:32;;;;;;;12.30;2.60;;;5.00;99.90;;;;;;4379913;28;658430;-75
2022/02/23 10:59:22;;;;;;;16.00;3.67;;;5.00;99.90;;;;;;4380242;28;657627;-74
2022/02/23 11:02:10;;;;;;;12.50;2.60;;;5.20;99.90;;;;;;4386698;28;657474;-75
2022/02/23 11:05:00;;;;;;;15.00;3.57;;;5.20;99.90;;;;;;4402509;28;658112;-75
2022/02/23 11:07:49;;;;;;;14.50;3.57;;;5.20;99.90;;;;;;4375388;28;657839;-74
2022/02/23 11:10:36;;;;;;;15.53;3.53;;;5.20;99.90;;;;;;4398293;28;658029;-74
2022/02/23 11:13:24;;;;;;;15.63;3.37;;;5.10;99.90;;;;;;4382836;28;657415;-74
2022/02/23 11:16:12;;;;;;;12.70;3.10;;;5.00;99.90;;;;;;4398873;28;658903;-75
2022/02/23 11:19:00;;;;;;;13.47;3.53;;;4.90;99.90;;;;;;4382764;28;657601;-75
2022/02/23 11:21:50;;;;;;;12.03;3.67;;;5.00;99.90;;;;;;4397148;28;657010;-74
2022/02/23 11:24:39;;;;;;;17.30;3.92;;;5.50;99.90;;;;;;4404563;28;657634;-74
2022/02/23 11:27:26;;;;;;;15.50;3.70;;;6.00;99.90;;;;;;4372304;28;658289;-74
2022/02/23 11:30:14;;;;;;;13.70;3.33;;;6.60;99.90;;;;;;4378792;28;657610;-73
2022/02/23 11:33:04;;;;;;;17.73;3.20;;;6.70;99.90;;;;;;4402821;28;657840;-75
2022/02/23 11:36:23;;;;;;;15.40;2.87;;;6.70;99.90;;;;;;4379984;28;659502;-76
2022/02/23 11:39:15;;;;;;;13.00;2.90;;;6.50;99.90;;;;;;4354327;28;657535;-75
2022/02/23 11:42:07;;;;;;;15.03;2.60;;;6.30;99.90;;;;;;4371400;28;657904;-74
2022/02/23 11:45:06;;;;;;;12.87;2.90;;;6.10;99.60;;;;;;4373978;28;657331;-75
2022/02/23 11:47:54;;;;;;;10.30;3.13;;;5.80;99.90;;;;;;4356007;28;658332;-73
2022/02/23 11:50:41;;;;;;;8.23;2.80;;;5.40;99.90;;;;;;4401855;28;659930;-74
2022/02/23 11:53:38;;;;;;;10.80;2.40;;;5.20;99.90;;;;;;4381337;28;656509;-77
2022/02/23 11:56:38;;;;;;;8.93;2.70;;;4.70;99.90;;;;;;4354049;28;658396;-76
2022/02/23 11:59:48;;;;;;;12.93;2.80;;;4.30;99.90;;;;;;4352784;28;657778;-77
2022/02/23 12:02:36;;;;;;;7.77;2.43;;;4.00;99.90;;;;;;4360925;28;658330;-77
2022/02/23 12:05:40;;;;;;;12.57;2.97;;;4.20;99.90;;;;;;4398044;28;657449;-78
2022/02/23 12:08:44;;;;;;;12.35;3.40;;;4.40;99.90;;;;;;4371451;28;657591;-77
2022/02/23 12:11:41;;;;;;;9.17;3.37;;;4.80;99.90;;;;;;4376905;28;658376;-76
2022/02/23 12:14:52;;;;;;;11.83;3.97;;;5.20;99.90;;;;;;4362212;28;656624;-76
2022/02/23 12:17:50;;;;;;;21.30;4.70;;;5.90;99.90;;;;;;4378100;28;657779;-76
2022/02/23 12:21:01;;;;;;;19.07;4.50;;;6.20;99.90;;;;;;4370915;28;657675;-77
2022/02/23 12:23:49;;;;;;;16.53;4.37;;;6.60;99.90;;;;;;4369373;28;658070;-73
2022/02/23 12:26:37;;;;;;;14.90;4.27;;;6.50;99.90;;;;;;4407657;28;657949;-75
2022/02/23 12:29:28;;;;;;;15.10;3.70;;;6.40;99.90;;;;;;4382997;28;658569;-75
2022/02/23 12:32:16;;;;;;;13.80;3.77;;;6.50;99.90;;;;;;4387157;28;659034;-74
2022/02/23 12:35:07;;;;;;;20.23;4.85;;;6.40;99.90;;;;;;4388269;28;657763;-73
2022/02/23 12:37:58;;;;;;;18.77;4.57;;;6.40;99.90;;;;;;4384911;28;657267;-75
2022/02/23 12:40:45;;;;;;;16.23;4.30;;;6.30;99.90;;;;;;4381601;28;658855;-74
2022/02/23 12:43:34;;;;;;;20.13;4.47;;;6.10;99.90;;;;;;4400898;28;657676;-73
2022/02/23 12:46:23;;;;;;;14.40;3.95;;;6.00;99.90;;;;;;4402237;28;658826;-75
2022/02/23 12:49:11;;;;;;;13.57;3.40;;;5.90;99.90;;;;;;4378350;28;658223;-74
2022/02/23 12:52:00;;;;;;;19.02;4.35;;;5.90;99.90;;;;;;4382748;28;658015;-73
2022/02/23 12:54:49;;;;;;;16.73;3.50;;;5.80;99.90;;;;;;4391295;28;658579;-73
2022/02/23 12:57:44;;;;;;;17.73;4.60;;;5.60;99.90;;;;;;4397247;28;658590;-74
2022/02/23 13:00:34;;;;;;;17.37;3.70;;;5.60;99.90;;;;;;4374796;28;658528;-75
2022/02/23 13:03:23;;;;;;;11.30;2.97;;;5.70;99.90;;;;;;4376051;28;657579;-75
2022/02/23 13:06:10;;;;;;;12.53;3.73;;;5.80;99.90;;;;;;4376040;28;658430;-75
2022/02/23 13:09:00;;;;;;;18.63;3.73;;;6.00;99.90;;;;;;4396970;28;657643;-73
2022/02/23 13:11:50;;;;;;;11.47;3.50;;;6.70;99.90;;;;;;4395766;28;657432;-73
2022/02/23 13:14:38;;;;;;;13.47;3.57;;;8.10;98.00;;;;;;4399473;28;657370;-74
2022/02/23 13:17:27;;;;;;;18.10;4.20;;;8.30;92.00;;;;;;4381916;28;658455;-75
2022/02/23 13:20:16;;;;;;;17.70;4.00;;;9.40;93.80;;;;;;4383389;28;658228;-75
2022/02/23 13:23:05;;;;;;;15.47;3.87;;;10.60;80.10;;;;;;4377698;28;657833;-75
2022/02/23 13:25:56;;;;;;;11.37;3.30;;;9.90;79.60;;;;;;4394719;28;658711;-75
2022/02/23 13:28:59;;;;;;;12.83;3.50;;;10.00;75.60;;;;;;4363910;28;657136;-73
2022/02/23 13:31:49;;;;;;;14.18;3.28;;;9.50;76.40;;;;;;4380877;28;658967;-74
2022/02/23 13:34:37;;;;;;;11.03;3.10;;;8.90;78.60;;;;;;4376887;28;658411;-76
2022/02/23 13:37:27;;;;;;;15.97;3.63;;;8.50;78.00;;;;;;4381826;28;657491;-74
2022/02/23 13:40:20;;;;;;;16.13;3.03;;;8.30;80.30;;;;;;4387154;28;657999;-75
2022/02/23 13:43:10;;;;;;;15.83;3.30;;;10.00;74.70;;;;;;4382690;28;659042;-74
2022/02/23 13:45:58;;;;;;;12.23;2.70;;;10.00;71.30;;;;;;4396577;28;658906;-74
2022/02/23 13:48:46;;;;;;;10.67;2.53;;;8.90;72.00;;;;;;4379577;28;659587;-75
2022/02/23 13:51:33;;;;;;;11.13;2.70;;;8.00;74.10;;;;;;4392599;28;657881;-73
2022/02/23 13:54:23;;;;;;;12.67;2.77;;;7.40;76.70;;;;;;4402898;28;658102;-76
2022/02/23 13:57:14;;;;;;;15.63;2.60;;;7.10;79.70;;;;;;4376982;28;658065;-75
2022/02/23 14:00:04;;;;;;;13.50;2.93;;;7.00;80.50;;;;;;4374895;28;657861;-76
2022/02/23 14:02:53;;;;;;;7.10;2.03;;;7.00;83.40;;;;;;4379742;28;658723;-75
2022/02/23 14:05:42;;;;;;;8.87;2.40;;;7.00;82.10;;;;;;4380330;28;657795;-76
2022/02/23 14:08:32;;;;;;;10.70;2.50;;;7.80;81.20;;;;;;4384440;28;656908;-76
2022/02/23 14:11:23;;;;;;;12.73;2.50;;;7.70;79.60;;;;;;4379035;28;658316;-74
2022/02/23 14:14:14;;;;;;;9.57;2.50;;;7.40;81.90;;;;;;4382120;28;659025;-75
2022/02/23 14:17:02;;;;;;;8.03;2.40;;;6.90;85.10;;;;;;4378560;28;657015;-75
2022/02/23 14:19:52;;;;;;;18.80;3.00;;;6.50;90.20;;;;;;4387567;28;656243;-75
2022/02/23 14:22:41;;;;;;;14.00;3.10;;;6.30;92.40;;;;;;4386383;28;658418;-75
2022/02/23 14:25:29;;;;;;;9.03;2.20;;;6.60;92.40;;;;;;4382026;28;657457;-74
2022/02/23 14:28:27;;;;;;;9.37;2.73;;;7.70;88.10;;;;;;4407564;28;657122;-76
2022/02/23 14:31:21;;;;;;;8.17;2.10;;;9.20;82.70;;;;;;4363434;28;656983;-74
2022/02/23 14:34:16;;;;;;;9.47;1.77;;;11.40;70.50;;;;;;4377326;28;656951;-73